Time;durP1;ratioP1;P1;durP2;ratioP2;P2;SDS_P1;SDS_P2;PMS_P1;PMS_P2;Temp;Humidity;BMP_temperature;BMP_pressure;BME280_temperature;BME280_humidity;BME280_pressure;Samples;Min_cycle;Max_cycle;Signal;HPM_P1;HPM_P2
2021/10/16 00:02:23;;;;;;;18.50;6.73;;;11.20;47.10;;;;;;5138155;27;20176;-90
2021/10/16 00:04:49;;;;;;;17.33;7.20;;;11.20;46.50;;;;;;5136306;28;20180;-87
2021/10/16 00:07:29;;;;;;;12.53;7.03;;;11.20;45.30;;;;;;5115418;28;20161;-92
2021/10/16 00:09:55;;;;;;;11.90;7.10;;;11.20;49.00;;;;;;5116391;28;20249;-91
2021/10/16 00:12:22;;;;;;;17.07;8.10;;;11.20;48.20;;;;;;5116777;28;20155;-93
2021/10/16 00:14:49;;;;;;;17.60;7.17;;;11.30;46.70;;;;;;5115909;28;20235;-94
2021/10/16 00:17:15;;;;;;;16.10;7.13;;;11.20;47.60;;;;;;5119185;27;20191;-87
2021/10/16 00:19:41;;;;;;;14.03;6.33;;;11.20;46.70;;;;;;5137450;27;20162;-86
2021/10/16 00:22:07;;;;;;;13.97;5.90;;;11.20;48.00;;;;;;5103600;27;20165;-87
2021/10/16 00:24:37;;;;;;;12.70;7.07;;;11.10;46.80;;;;;;5119518;28;20257;-93
2021/10/16 00:27:03;;;;;;;11.83;6.90;;;11.30;46.60;;;;;;5118897;28;20257;-93
2021/10/16 00:29:32;;;;;;;16.33;6.63;;;11.40;45.40;;;;;;5127660;28;20158;-87
2021/10/16 00:31:59;;;;;;;15.80;7.53;;;11.50;42.60;;;;;;5140752;28;20170;-90
2021/10/16 00:34:24;;;;;;;15.40;6.70;;;11.60;38.50;;;;;;5137745;27;20179;-91
2021/10/16 00:36:50;;;;;;;17.93;7.83;;;11.70;37.00;;;;;;5140386;28;20167;-89
2021/10/16 00:39:16;;;;;;;18.43;7.03;;;11.40;38.10;;;;;;5139813;28;20190;-94
2021/10/16 00:41:41;;;;;;;18.50;7.03;;;11.40;38.90;;;;;;5104542;28;20577;-94
2021/10/16 00:44:11;;;;;;;15.23;6.03;;;11.30;41.60;;;;;;5121496;28;20171;-93
2021/10/16 00:46:36;;;;;;;15.27;6.00;;;11.20;41.00;;;;;;5102247;28;20203;-90
2021/10/16 00:49:04;;;;;;;15.60;6.70;;;10.90;43.10;;;;;;5135452;27;20155;-86
2021/10/16 00:51:33;;;;;;;15.13;6.17;;;10.80;48.90;;;;;;5137835;27;20683;-94
2021/10/16 00:54:28;;;;;;;13.57;6.37;;;10.90;49.30;;;;;;5108452;28;20539;-94
2021/10/16 00:56:58;;;;;;;17.23;6.47;;;10.90;52.30;;;;;;5118699;28;20623;-93
2021/10/16 00:59:24;;;;;;;16.43;6.33;;;11.00;50.00;;;;;;5126486;28;20163;-91
2021/10/16 01:01:50;;;;;;;17.83;7.10;;;11.10;49.40;;;;;;5140647;27;20209;-92
2021/10/16 01:04:17;;;;;;;15.17;6.70;;;11.30;46.30;;;;;;5140805;27;20183;-90
2021/10/16 01:06:46;;;;;;;14.50;6.60;;;11.30;43.70;;;;;;5131345;28;20159;-93
2021/10/16 01:09:19;;;;;;;11.03;5.90;;;11.40;40.80;;;;;;5133926;28;20159;-92
2021/10/16 01:11:52;;;;;;;16.50;7.30;;;11.60;38.40;;;;;;5106698;28;20313;-94
2021/10/16 01:14:19;;;;;;;18.03;7.10;;;11.60;36.00;;;;;;5119450;28;20245;-93
2021/10/16 01:16:50;;;;;;;14.90;6.57;;;11.60;34.10;;;;;;5123733;28;20181;-92
2021/10/16 01:19:21;;;;;;;15.33;6.47;;;11.60;33.40;;;;;;5101969;28;20254;-89
2021/10/16 01:21:55;;;;;;;19.60;7.50;;;11.70;34.40;;;;;;5140921;27;20144;-82
2021/10/16 01:24:21;;;;;;;18.97;7.67;;;11.50;34.70;;;;;;5128307;28;20151;-94
2021/10/16 01:26:48;;;;;;;20.17;7.00;;;11.50;34.40;;;;;;5104035;28;20240;-92
2021/10/16 01:29:24;;;;;;;20.40;7.07;;;11.40;36.80;;;;;;5117917;28;20159;-93
2021/10/16 01:31:56;;;;;;;20.03;6.53;;;11.30;38.10;;;;;;5117979;28;20526;-94
2021/10/16 01:34:22;;;;;;;19.37;6.77;;;11.30;38.70;;;;;;5098776;28;20178;-93
2021/10/16 01:36:49;;;;;;;15.27;6.70;;;11.30;38.90;;;;;;5118562;28;20534;-94
2021/10/16 01:39:16;;;;;;;24.63;8.23;;;11.30;39.90;;;;;;5117181;28;20171;-89
2021/10/16 01:41:42;;;;;;;18.03;7.83;;;11.30;41.10;;;;;;5116725;28;20764;-94
2021/10/16 01:44:08;;;;;;;16.17;8.37;;;11.30;42.80;;;;;;5117550;28;20190;-94
2021/10/16 01:46:35;;;;;;;21.37;8.43;;;11.30;43.80;;;;;;5117365;28;20189;-93
2021/10/16 01:49:12;;;;;;;18.33;8.00;;;11.30;44.80;;;;;;5117314;28;20166;-94
2021/10/16 01:51:38;;;;;;;18.10;7.83;;;11.30;45.70;;;;;;5117467;28;20210;-93
2021/10/16 01:54:05;;;;;;;17.07;8.47;;;11.30;43.40;;;;;;5117109;28;20572;-92
2021/10/16 01:56:30;;;;;;;15.90;7.87;;;11.30;42.30;;;;;;5117260;28;20167;-94
2021/10/16 01:58:56;;;;;;;20.93;8.77;;;11.40;43.20;;;;;;5116712;28;20631;-95
2021/10/16 02:01:22;;;;;;;18.53;9.67;;;11.20;44.10;;;;;;5117074;28;20167;-95
2021/10/16 02:03:47;;;;;;;20.40;10.53;;;11.10;45.90;;;;;;5116608;28;20736;-96
2021/10/16 02:06:13;;;;;;;18.00;9.80;;;11.10;48.20;;;;;;5116367;28;20246;-94
2021/10/16 02:08:39;;;;;;;18.03;10.33;;;11.00;49.60;;;;;;5116479;28;20190;-93
2021/10/16 02:11:05;;;;;;;18.63;9.97;;;11.00;50.10;;;;;;5119191;28;20229;-93
2021/10/16 02:13:31;;;;;;;17.83;10.20;;;11.00;50.30;;;;;;5123704;28;20242;-93
2021/10/16 02:15:57;;;;;;;18.77;10.07;;;10.90;51.60;;;;;;5113664;28;20178;-87
2021/10/16 02:18:23;;;;;;;15.77;9.37;;;10.90;51.90;;;;;;5139207;27;20196;-88
2021/10/16 02:20:51;;;;;;;17.07;9.73;;;10.80;53.70;;;;;;5122581;28;20159;-91
2021/10/16 02:23:17;;;;;;;13.50;9.70;;;10.70;56.30;;;;;;5122506;27;20198;-88
2021/10/16 02:25:43;;;;;;;14.27;10.10;;;10.60;58.60;;;;;;5139568;27;20163;-90
2021/10/16 02:28:08;;;;;;;18.03;10.10;;;10.60;59.70;;;;;;5121378;28;20169;-94
2021/10/16 02:30:34;;;;;;;18.07;10.50;;;10.60;59.00;;;;;;5101353;28;20202;-96
2021/10/16 02:33:01;;;;;;;16.87;10.20;;;10.70;57.00;;;;;;5127857;28;20686;-95
2021/10/16 02:35:26;;;;;;;15.73;9.30;;;10.70;53.90;;;;;;5120488;28;20177;-95
2021/10/16 02:37:58;;;;;;;17.57;9.30;;;10.60;53.40;;;;;;5119006;28;20561;-96
2021/10/16 02:40:23;;;;;;;16.57;9.90;;;10.50;56.40;;;;;;5116552;28;20214;-96
2021/10/16 02:42:49;;;;;;;18.33;9.93;;;10.50;57.60;;;;;;5138701;27;20154;-88
2021/10/16 02:45:14;;;;;;;17.30;9.30;;;10.50;59.00;;;;;;5122241;27;20231;-88
2021/10/16 02:47:43;;;;;;;13.93;9.77;;;10.50;58.60;;;;;;5137709;27;20177;-94
2021/10/16 02:50:12;;;;;;;18.50;10.10;;;10.60;58.90;;;;;;5121420;28;20205;-94
2021/10/16 02:52:41;;;;;;;18.80;9.97;;;10.50;58.30;;;;;;5116510;28;20187;-92
2021/10/16 02:55:07;;;;;;;19.07;10.17;;;10.70;58.70;;;;;;5098839;28;20653;-94
2021/10/16 02:57:33;;;;;;;19.17;9.87;;;10.50;58.90;;;;;;5098326;28;20524;-94
2021/10/16 02:59:59;;;;;;;19.33;9.93;;;10.50;59.80;;;;;;5105141;27;20229;-85
2021/10/16 03:02:25;;;;;;;18.33;9.57;;;10.50;62.60;;;;;;5139649;27;20169;-87
2021/10/16 03:04:51;;;;;;;18.07;8.67;;;10.40;63.20;;;;;;5115523;28;20182;-89
2021/10/16 03:07:19;;;;;;;15.30;9.43;;;10.50;63.40;;;;;;5111637;28;20173;-94
2021/10/16 03:10:12;;;;;;;14.73;8.30;;;10.50;64.60;;;;;;5120476;28;20175;-95
2021/10/16 03:12:37;;;;;;;13.43;8.77;;;10.40;67.10;;;;;;5122173;28;20158;-94
2021/10/16 03:15:04;;;;;;;14.63;9.20;;;10.50;67.80;;;;;;5117712;28;20645;-95
2021/10/16 03:17:30;;;;;;;13.93;8.40;;;10.20;69.20;;;;;;5120003;28;20572;-94
2021/10/16 03:19:55;;;;;;;16.13;8.43;;;10.30;70.50;;;;;;5104040;28;20185;-94
2021/10/16 03:22:21;;;;;;;14.73;9.00;;;10.20;71.50;;;;;;5098616;28;20181;-94
2021/10/16 03:24:47;;;;;;;16.30;9.43;;;10.20;71.70;;;;;;5118916;28;20167;-92
2021/10/16 03:27:12;;;;;;;14.07;9.37;;;10.20;71.60;;;;;;5120912;28;20166;-94
2021/10/16 03:29:38;;;;;;;15.80;9.77;;;10.20;72.60;;;;;;5121673;28;20166;-95
2021/10/16 03:32:04;;;;;;;16.30;9.00;;;10.50;71.90;;;;;;5132270;27;20179;-87
2021/10/16 03:34:30;;;;;;;19.33;10.00;;;10.50;70.10;;;;;;5135356;27;20193;-94
2021/10/16 03:36:56;;;;;;;17.83;9.80;;;10.60;67.10;;;;;;5136157;27;20175;-87
2021/10/16 03:39:22;;;;;;;17.77;9.50;;;10.60;65.40;;;;;;5123872;28;20315;-87
2021/10/16 03:41:48;;;;;;;16.77;10.70;;;10.60;64.30;;;;;;5097629;28;20224;-88
2021/10/16 03:44:17;;;;;;;15.17;9.13;;;10.70;63.00;;;;;;5115781;28;20168;-92
2021/10/16 03:46:42;;;;;;;17.87;9.63;;;10.70;60.90;;;;;;5097413;28;20186;-94
2021/10/16 03:49:08;;;;;;;15.93;8.73;;;10.70;59.70;;;;;;5116005;28;20167;-94
2021/10/16 03:51:34;;;;;;;16.87;9.67;;;10.60;60.00;;;;;;5115247;28;20682;-94
2021/10/16 03:54:01;;;;;;;14.70;9.23;;;10.60;60.00;;;;;;5115633;28;20195;-94
2021/10/16 03:56:27;;;;;;;13.23;8.27;;;10.60;59.90;;;;;;5115771;28;20167;-94
2021/10/16 03:58:53;;;;;;;17.00;8.97;;;10.70;60.00;;;;;;5115322;28;20261;-93
2021/10/16 04:01:18;;;;;;;15.20;9.20;;;10.90;59.00;;;;;;5115436;28;20254;-93
2021/10/16 04:03:44;;;;;;;13.73;8.23;;;10.70;58.50;;;;;;5120284;28;20183;-88
2021/10/16 04:06:10;;;;;;;17.40;8.70;;;10.80;58.80;;;;;;5141553;28;20152;-86
2021/10/16 04:08:35;;;;;;;16.47;8.50;;;10.70;59.60;;;;;;5131333;28;20179;-94
2021/10/16 04:11:01;;;;;;;14.53;8.00;;;10.80;59.20;;;;;;5123232;28;20202;-93
2021/10/16 04:13:26;;;;;;;19.03;9.03;;;10.80;58.70;;;;;;5136349;28;20167;-83
2021/10/16 04:15:58;;;;;;;14.80;8.30;;;10.80;59.10;;;;;;5138661;28;20171;-94
2021/10/16 04:18:25;;;;;;;17.33;9.20;;;10.80;58.60;;;;;;5115092;28;20542;-94
2021/10/16 04:20:51;;;;;;;15.03;8.17;;;10.80;59.20;;;;;;5113928;28;20170;-88
2021/10/16 04:23:16;;;;;;;16.77;8.27;;;11.00;59.50;;;;;;5136957;28;20150;-89
2021/10/16 04:25:44;;;;;;;15.27;8.57;;;10.80;59.50;;;;;;5130288;28;20182;-90
2021/10/16 04:28:10;;;;;;;15.97;8.60;;;10.80;58.40;;;;;;5121183;28;20167;-92
2021/10/16 04:30:36;;;;;;;21.23;9.40;;;10.80;56.10;;;;;;5120448;28;20248;-94
2021/10/16 04:33:02;;;;;;;14.87;8.07;;;10.90;54.80;;;;;;5101002;28;20175;-95
2021/10/16 04:35:28;;;;;;;15.17;7.80;;;11.00;54.90;;;;;;5101345;28;20236;-92
2021/10/16 04:37:53;;;;;;;15.77;8.30;;;10.90;56.00;;;;;;5120638;28;20180;-92
2021/10/16 04:40:26;;;;;;;17.97;8.20;;;10.70;57.50;;;;;;5125455;28;20222;-87
2021/10/16 04:42:53;;;;;;;15.80;7.03;;;10.40;59.90;;;;;;5123913;27;20151;-82
2021/10/16 04:45:20;;;;;;;14.63;7.50;;;10.50;64.50;;;;;;5129308;28;20181;-94
2021/10/16 04:48:23;;;;;;;14.30;6.90;;;10.40;66.50;;;;;;5108412;28;20204;-90
2021/10/16 04:50:51;;;;;;;19.47;6.60;;;10.30;69.20;;;;;;5122095;28;20199;-87
2021/10/16 04:53:16;;;;;;;16.50;7.40;;;10.40;71.60;;;;;;5119071;28;20179;-91
2021/10/16 04:55:43;;;;;;;20.67;7.53;;;10.30;72.60;;;;;;5122633;28;20173;-90
2021/10/16 04:58:08;;;;;;;17.67;8.80;;;10.40;72.60;;;;;;5115878;28;20175;-92
2021/10/16 05:00:34;;;;;;;16.73;8.63;;;10.50;71.40;;;;;;5119061;28;20199;-91
2021/10/16 05:03:03;;;;;;;13.93;7.43;;;10.60;69.20;;;;;;5107838;28;20167;-95
2021/10/16 05:05:28;;;;;;;13.57;8.07;;;10.60;67.40;;;;;;5101324;28;20170;-93
2021/10/16 05:08:06;;;;;;;13.97;8.03;;;10.60;67.30;;;;;;5119294;28;20156;-92
2021/10/16 05:10:33;;;;;;;17.93;8.53;;;10.70;67.60;;;;;;5123638;28;20525;-93
2021/10/16 05:12:59;;;;;;;14.30;8.07;;;10.60;67.20;;;;;;5102217;28;20356;-94
2021/10/16 05:15:24;;;;;;;14.13;8.43;;;10.60;66.70;;;;;;5118851;28;20752;-94
2021/10/16 05:17:50;;;;;;;18.23;8.03;;;10.70;64.50;;;;;;5119483;28;20187;-91
2021/10/16 05:20:19;;;;;;;15.27;8.57;;;10.70;63.40;;;;;;5101025;28;20169;-93
2021/10/16 05:22:48;;;;;;;12.17;8.13;;;10.60;63.20;;;;;;5117528;28;20167;-85
2021/10/16 05:25:15;;;;;;;17.93;9.40;;;10.80;62.60;;;;;;5133868;28;20151;-93
2021/10/16 05:27:41;;;;;;;21.10;9.53;;;10.60;62.70;;;;;;5123913;28;20171;-93
2021/10/16 05:30:13;;;;;;;16.97;8.60;;;10.60;60.30;;;;;;5119386;28;20193;-94
2021/10/16 05:32:38;;;;;;;15.67;8.50;;;10.80;57.70;;;;;;5123160;28;20526;-93
2021/10/16 05:35:05;;;;;;;17.33;8.73;;;10.70;56.20;;;;;;5131378;28;20189;-87
2021/10/16 05:37:31;;;;;;;18.07;8.63;;;10.60;57.80;;;;;;5135957;28;20218;-95
2021/10/16 05:39:56;;;;;;;17.80;8.70;;;10.40;59.50;;;;;;5139991;27;20150;-89
2021/10/16 05:42:22;;;;;;;14.57;8.63;;;10.20;63.80;;;;;;5140710;27;20167;-88
2021/10/16 05:44:48;;;;;;;18.00;8.93;;;10.20;68.00;;;;;;5121909;28;20171;-94
2021/10/16 05:47:15;;;;;;;18.67;8.83;;;10.30;68.50;;;;;;5134877;28;20170;-93
2021/10/16 05:50:12;;;;;;;18.80;9.07;;;10.30;69.80;;;;;;5129272;28;20159;-92
2021/10/16 05:52:39;;;;;;;16.40;9.00;;;10.30;68.10;;;;;;5120260;28;20195;-95
2021/10/16 05:55:06;;;;;;;16.93;9.20;;;10.20;68.00;;;;;;5125829;28;20167;-91
2021/10/16 05:57:33;;;;;;;17.43;9.00;;;10.20;70.30;;;;;;5120053;28;20167;-91
2021/10/16 06:00:00;;;;;;;18.47;9.30;;;10.20;69.70;;;;;;5138714;27;20588;-89
2021/10/16 06:02:26;;;;;;;17.33;9.10;;;10.10;69.50;;;;;;5138884;27;20151;-87
2021/10/16 06:04:52;;;;;;;14.70;8.93;;;10.10;70.20;;;;;;5138646;27;20151;-89
2021/10/16 06:07:17;;;;;;;15.77;8.83;;;10.00;72.80;;;;;;5105186;28;20178;-94
2021/10/16 06:09:43;;;;;;;17.20;9.10;;;10.00;73.90;;;;;;5119461;28;20238;-94
2021/10/16 06:12:09;;;;;;;16.57;8.97;;;9.80;75.30;;;;;;5116132;28;20183;-94
2021/10/16 06:14:35;;;;;;;14.73;8.63;;;9.70;78.60;;;;;;5116358;28;20167;-93
2021/10/16 06:17:00;;;;;;;14.23;8.13;;;9.70;79.80;;;;;;5116631;28;20163;-94
2021/10/16 06:19:27;;;;;;;16.97;8.17;;;9.60;80.50;;;;;;5117994;28;20206;-93
2021/10/16 06:21:52;;;;;;;13.57;8.07;;;9.60;81.20;;;;;;5118868;28;20192;-94
2021/10/16 06:24:18;;;;;;;16.27;8.77;;;9.50;82.90;;;;;;5117085;28;20175;-92
2021/10/16 06:26:44;;;;;;;15.73;8.20;;;9.60;83.30;;;;;;5117365;28;20171;-92
2021/10/16 06:29:09;;;;;;;14.47;8.30;;;9.70;82.50;;;;;;5117835;28;20240;-94
2021/10/16 06:31:36;;;;;;;18.37;8.60;;;9.80;79.30;;;;;;5116562;28;20211;-93
2021/10/16 06:34:02;;;;;;;14.70;8.63;;;10.00;77.80;;;;;;5130613;28;20193;-89
2021/10/16 06:36:28;;;;;;;18.40;8.77;;;9.80;78.40;;;;;;5117871;28;20174;-94
2021/10/16 06:38:56;;;;;;;12.47;7.57;;;9.80;79.80;;;;;;5119579;28;20682;-93
2021/10/16 06:41:22;;;;;;;15.80;7.97;;;9.80;80.00;;;;;;5117955;28;20544;-92
2021/10/16 06:43:49;;;;;;;17.20;7.77;;;9.90;81.40;;;;;;5127541;28;20198;-94
2021/10/16 06:46:15;;;;;;;18.00;7.90;;;9.90;81.80;;;;;;5125759;28;20261;-84
2021/10/16 06:48:40;;;;;;;12.73;6.87;;;10.00;81.10;;;;;;5133397;28;20191;-90
2021/10/16 06:51:06;;;;;;;14.43;7.23;;;10.00;80.70;;;;;;5117012;28;20249;-86
2021/10/16 06:53:33;;;;;;;16.03;7.50;;;10.10;79.80;;;;;;5107946;28;20635;-94
2021/10/16 06:56:00;;;;;;;11.37;7.63;;;10.10;78.70;;;;;;5119286;28;20175;-93
2021/10/16 06:58:25;;;;;;;13.27;7.50;;;10.10;78.60;;;;;;5124687;28;20171;-86
2021/10/16 07:00:51;;;;;;;16.53;7.63;;;10.40;78.00;;;;;;5119108;28;20181;-82
2021/10/16 07:03:17;;;;;;;12.90;8.30;;;10.50;75.10;;;;;;5136506;28;20162;-84
2021/10/16 07:05:47;;;;;;;15.80;7.37;;;10.50;72.50;;;;;;5133901;28;20159;-88
2021/10/16 07:08:16;;;;;;;14.83;7.33;;;10.50;70.80;;;;;;5108305;28;20650;-92
2021/10/16 07:10:42;;;;;;;14.33;7.47;;;10.50;70.40;;;;;;5117018;28;20268;-90
2021/10/16 07:13:09;;;;;;;14.20;8.10;;;10.60;70.20;;;;;;5116250;28;20250;-92
2021/10/16 07:15:35;;;;;;;15.30;8.03;;;10.80;70.10;;;;;;5116780;28;20174;-92
2021/10/16 07:18:02;;;;;;;19.17;7.87;;;11.00;68.10;;;;;;5116866;28;20204;-90
2021/10/16 07:20:28;;;;;;;14.73;7.13;;;11.10;62.00;;;;;;5116255;28;20167;-89
2021/10/16 07:22:54;;;;;;;15.00;7.97;;;11.20;57.20;;;;;;5100921;28;20182;-88
2021/10/16 07:25:21;;;;;;;16.27;8.23;;;11.30;55.60;;;;;;5119425;28;20560;-83
2021/10/16 07:27:51;;;;;;;13.77;8.20;;;11.30;53.50;;;;;;5097936;28;20220;-90
2021/10/16 07:30:18;;;;;;;16.70;7.90;;;11.40;52.10;;;;;;5115126;28;20222;-88
2021/10/16 07:32:45;;;;;;;17.33;8.17;;;11.50;51.20;;;;;;5115430;28;20216;-88
2021/10/16 07:35:11;;;;;;;13.73;8.73;;;11.50;47.30;;;;;;5114717;28;20155;-86
2021/10/16 07:37:37;;;;;;;16.70;10.27;;;11.60;46.30;;;;;;5099732;28;20187;-88
2021/10/16 07:40:04;;;;;;;19.07;8.07;;;11.90;43.50;;;;;;5101684;28;20631;-86
2021/10/16 07:42:31;;;;;;;11.00;7.47;;;11.80;40.00;;;;;;5100754;28;20163;-89
2021/10/16 07:44:56;;;;;;;14.87;7.53;;;11.80;38.20;;;;;;5124480;27;20661;-89
2021/10/16 07:47:26;;;;;;;16.80;8.23;;;11.90;35.90;;;;;;5124666;27;20193;-88
2021/10/16 07:49:55;;;;;;;21.33;8.97;;;11.80;35.30;;;;;;5100243;28;20206;-88
2021/10/16 07:52:23;;;;;;;14.13;8.27;;;11.90;32.90;;;;;;5119012;28;20199;-89
2021/10/16 07:54:48;;;;;;;13.23;8.10;;;12.10;31.40;;;;;;5119891;28;20164;-88
2021/10/16 07:57:14;;;;;;;16.00;8.70;;;12.00;31.90;;;;;;5101493;28;20244;-88
2021/10/16 07:59:41;;;;;;;19.53;8.43;;;12.10;31.40;;;;;;5131025;28;20198;-83
2021/10/16 08:02:07;;;;;;;16.43;9.03;;;12.20;30.10;;;;;;5122266;28;20287;-86
2021/10/16 08:04:33;;;;;;;16.93;7.40;;;12.30;29.90;;;;;;5120167;28;20163;-90
2021/10/16 08:07:01;;;;;;;20.47;8.40;;;12.30;26.90;;;;;;5120190;28;20174;-87
2021/10/16 08:09:26;;;;;;;17.10;7.53;;;12.50;24.00;;;;;;5123516;28;20325;-85
2021/10/16 08:11:52;;;;;;;15.63;8.43;;;12.60;24.40;;;;;;5121351;28;20288;-83
2021/10/16 08:14:18;;;;;;;17.73;8.07;;;12.60;23.40;;;;;;5117860;28;20301;-83
2021/10/16 08:16:45;;;;;;;17.20;7.40;;;12.40;24.70;;;;;;5102887;28;20197;-82
2021/10/16 08:19:17;;;;;;;16.07;7.93;;;12.40;24.40;;;;;;5136045;28;20167;-85
2021/10/16 08:21:42;;;;;;;14.40;7.40;;;12.50;21.70;;;;;;5106565;28;20179;-83
2021/10/16 08:24:08;;;;;;;17.50;7.80;;;12.60;18.30;;;;;;5112307;28;20231;-82
2021/10/16 08:26:34;;;;;;;20.03;8.00;;;12.70;16.60;;;;;;5114793;28;20290;-80
2021/10/16 08:29:00;;;;;;;14.23;7.83;;;12.80;10.50;;;;;;5119030;28;20167;-78
2021/10/16 08:31:28;;;;;;;18.27;8.87;;;12.80;10.80;;;;;;5118973;28;20234;-80
2021/10/16 08:33:55;;;;;;;16.93;8.17;;;12.80;11.70;;;;;;5099310;28;20163;-80
2021/10/16 08:36:26;;;;;;;16.37;7.90;;;12.80;9.80;;;;;;5119301;27;20171;-81
2021/10/16 08:38:52;;;;;;;17.33;7.47;;;13.00;8.70;;;;;;5125104;27;20631;-80
2021/10/16 08:41:19;;;;;;;22.63;8.10;;;13.10;5.10;;;;;;5115845;28;20171;-80
2021/10/16 08:43:45;;;;;;;15.50;8.17;;;13.30;1.00;;;;;;5097303;28;20317;-81
2021/10/16 08:46:13;;;;;;;14.30;8.00;;;13.30;1.00;;;;;;5116680;28;20266;-81
2021/10/16 08:48:42;;;;;;;13.33;7.20;;;13.30;1.00;;;;;;5116179;28;20200;-81
2021/10/16 08:51:08;;;;;;;19.70;7.37;;;13.40;1.00;;;;;;5116610;28;20211;-81
2021/10/16 08:53:35;;;;;;;16.40;7.60;;;13.40;1.00;;;;;;5116998;28;20168;-82
2021/10/16 08:56:04;;;;;;;13.43;7.33;;;13.60;1.00;;;;;;5116691;28;20175;-82
2021/10/16 08:58:33;;;;;;;16.97;7.00;;;13.60;1.00;;;;;;5117040;28;20200;-81
2021/10/16 09:01:01;;;;;;;18.90;6.47;;;13.50;1.00;;;;;;5100083;28;20169;-83
2021/10/16 09:03:40;;;;;;;12.13;6.33;;;13.60;1.00;;;;;;5114281;28;20194;-81
2021/10/16 09:06:16;;;;;;;13.67;6.80;;;13.60;1.00;;;;;;5098490;28;20184;-83
2021/10/16 09:08:48;;;;;;;14.73;6.57;;;13.80;1.00;;;;;;5126136;28;20207;-80
2021/10/16 09:11:38;;;;;;;12.70;6.87;;;13.90;1.00;;;;;;5132870;28;20217;-84
2021/10/16 09:14:12;;;;;;;9.50;6.80;;;14.10;1.00;;;;;;5111968;28;20161;-85
2021/10/16 09:16:43;;;;;;;15.93;7.50;;;14.30;1.00;;;;;;5126040;28;20171;-88
2021/10/16 09:19:11;;;;;;;17.50;7.50;;;14.30;1.00;;;;;;5118929;28;20217;-91
2021/10/16 09:21:49;;;;;;;20.40;7.73;;;14.50;1.00;;;;;;5121402;28;20707;-86
2021/10/16 09:24:17;;;;;;;16.70;7.23;;;14.40;1.00;;;;;;5121174;28;20205;-90
2021/10/16 09:26:47;;;;;;;14.23;6.17;;;14.50;1.00;;;;;;5119673;28;20181;-88
2021/10/16 09:29:15;;;;;;;16.13;6.53;;;14.40;1.00;;;;;;5118549;28;20212;-87
2021/10/16 09:32:00;;;;;;;17.70;7.00;;;14.40;1.00;;;;;;5117070;28;20248;-84
2021/10/16 09:34:32;;;;;;;15.37;6.00;;;14.60;1.00;;;;;;5099616;28;20215;-90
2021/10/16 09:37:21;;;;;;;15.90;6.47;;;14.60;1.00;;;;;;5118332;28;20163;-87
2021/10/16 09:39:49;;;;;;;16.17;6.93;;;14.70;1.00;;;;;;5103383;28;20547;-83
2021/10/16 09:42:39;;;;;;;19.17;6.60;;;15.00;1.00;;;;;;5109465;28;20272;-85
2021/10/16 09:45:14;;;;;;;19.80;7.30;;;14.90;1.00;;;;;;5080905;28;20542;-90
2021/10/16 09:47:53;;;;;;;13.67;5.53;;;14.90;1.00;;;;;;5082323;28;20171;-94
2021/10/16 09:50:27;;;;;;;10.00;4.07;;;14.80;1.00;;;;;;5119531;28;20650;-84
2021/10/16 09:52:53;;;;;;;11.57;4.37;;;14.90;1.00;;;;;;5105431;28;20228;-85
2021/10/16 09:55:19;;;;;;;13.73;5.07;;;15.00;1.00;;;;;;5123286;28;20174;-81
2021/10/16 09:57:48;;;;;;;18.17;5.73;;;15.10;1.00;;;;;;5125948;28;20196;-86
2021/10/16 10:00:16;;;;;;;10.70;4.77;;;15.10;1.00;;;;;;5130931;28;20157;-88
2021/10/16 10:02:49;;;;;;;11.10;4.63;;;15.30;1.00;;;;;;5121322;28;20583;-82
2021/10/16 10:05:24;;;;;;;12.80;4.80;;;15.40;1.00;;;;;;5115916;28;20197;-80
2021/10/16 10:07:51;;;;;;;12.33;4.67;;;15.60;1.00;;;;;;5097155;28;20660;-82
2021/10/16 10:10:17;;;;;;;10.87;3.87;;;15.80;1.00;;;;;;5114645;28;20608;-85
2021/10/16 10:12:44;;;;;;;8.10;3.57;;;15.90;1.00;;;;;;5095994;28;20307;-81
2021/10/16 10:15:10;;;;;;;11.70;3.60;;;15.90;1.00;;;;;;5114625;28;20541;-81
2021/10/16 10:17:36;;;;;;;9.90;3.47;;;15.80;1.00;;;;;;5079293;28;20258;-80
2021/10/16 10:20:08;;;;;;;10.17;2.80;;;15.90;1.00;;;;;;5115891;28;20178;-80
2021/10/16 10:22:36;;;;;;;8.67;3.07;;;16.10;1.00;;;;;;5096948;28;20242;-79
2021/10/16 10:25:24;;;;;;;9.57;2.90;;;16.00;99.90;;;;;;5119125;28;20163;-90
2021/10/16 10:27:56;;;;;;;9.03;3.03;;;16.30;99.90;;;;;;5133242;27;20170;-85
2021/10/16 10:30:40;;;;;;;10.30;2.93;;;16.40;99.90;;;;;;5147483;27;20197;-91
2021/10/16 10:33:20;;;;;;;8.97;3.13;;;16.20;99.90;;;;;;5147444;27;20225;-85
2021/10/16 10:36:26;;;;;;;10.40;2.93;;;16.20;99.90;;;;;;5138463;27;20246;-93
2021/10/16 10:39:33;;;;;;;13.87;3.67;;;16.20;99.90;;;;;;5108006;28;20228;-81
2021/10/16 10:42:21;;;;;;;9.60;3.30;;;16.20;99.90;;;;;;5117589;28;20163;-81
2021/10/16 10:44:49;;;;;;;9.37;2.37;;;16.40;99.90;;;;;;5095943;28;20168;-80
2021/10/16 10:47:35;;;;;;;7.87;2.73;;;16.40;99.90;;;;;;5100271;28;20171;-79
2021/10/16 10:50:08;;;;;;;11.23;2.97;;;16.40;99.90;;;;;;5120473;28;20178;-82
2021/10/16 10:52:56;;;;;;;9.33;2.90;;;16.20;99.90;;;;;;5115536;28;20194;-81
2021/10/16 10:58:50;;;;;;;8.60;2.57;;;16.10;99.90;;;;;;5095144;28;20189;-84
2021/10/16 11:01:51;;;;;;;10.67;3.27;;;16.00;99.90;;;;;;5093577;28;20655;-84
2021/10/16 11:04:37;;;;;;;11.77;2.37;;;15.70;99.90;;;;;;5112697;28;20642;-81
2021/10/16 11:07:06;;;;;;;8.70;3.10;;;15.50;99.90;;;;;;5106380;28;20192;-83
2021/10/16 11:09:33;;;;;;;10.03;3.10;;;15.50;1.00;;;;;;5113213;28;20194;-80
2021/10/16 11:11:59;;;;;;;8.37;3.00;;;15.50;80.90;;;;;;5119036;28;20269;-80
2021/10/16 11:14:38;;;;;;;9.13;2.83;;;15.60;1.00;;;;;;5115369;28;20194;-80
2021/10/16 11:17:15;;;;;;;9.37;2.70;;;15.50;1.00;;;;;;5113704;28;20169;-83
2021/10/16 11:19:56;;;;;;;7.33;2.87;;;15.70;1.00;;;;;;5109178;28;20187;-81
2021/10/16 11:22:37;;;;;;;5.87;2.40;;;15.80;99.90;;;;;;5109863;28;20678;-79
2021/10/16 11:25:03;;;;;;;7.20;2.40;;;15.90;1.00;;;;;;5110145;28;20695;-81
2021/10/16 11:27:29;;;;;;;7.53;2.60;;;15.80;1.00;;;;;;5111873;28;20234;-81
2021/10/16 11:29:55;;;;;;;9.30;3.70;;;15.90;1.00;;;;;;5094392;28;20385;-82
2021/10/16 11:32:25;;;;;;;8.73;3.10;;;15.80;1.00;;;;;;5111109;28;20198;-83
2021/10/16 11:35:06;;;;;;;8.83;3.23;;;15.80;99.90;;;;;;5093842;28;20615;-79
2021/10/16 11:37:48;;;;;;;9.70;3.13;;;15.70;99.90;;;;;;5112208;28;20181;-82
2021/10/16 11:40:20;;;;;;;7.97;3.07;;;15.60;99.90;;;;;;5108065;28;20167;-82
2021/10/16 11:42:58;;;;;;;7.93;2.37;;;15.50;99.90;;;;;;5112324;28;20232;-80
2021/10/16 11:45:33;;;;;;;5.83;2.43;;;15.50;1.00;;;;;;5112459;28;20192;-80
2021/10/16 11:48:02;;;;;;;8.10;2.63;;;15.40;8.90;;;;;;5112074;28;20162;-81
2021/10/16 11:50:34;;;;;;;7.83;2.80;;;15.00;99.90;;;;;;5111600;28;20246;-79
2021/10/16 11:53:19;;;;;;;8.30;2.37;;;15.00;99.90;;;;;;5111209;28;20167;-79
2021/10/16 11:55:51;;;;;;;9.03;2.83;;;14.70;99.90;;;;;;5111901;28;20191;-80
2021/10/16 11:58:20;;;;;;;6.03;2.40;;;14.40;1.00;;;;;;5091262;28;20159;-81
2021/10/16 12:00:56;;;;;;;8.20;2.63;;;14.30;1.00;;;;;;5111918;28;20167;-81
2021/10/16 12:03:41;;;;;;;7.80;2.30;;;14.10;1.00;;;;;;5094393;28;20579;-82
2021/10/16 12:06:08;;;;;;;5.73;2.63;;;14.00;1.00;;;;;;5114611;28;20176;-90
2021/10/16 12:08:46;;;;;;;7.20;2.13;;;14.00;1.00;;;;;;5096932;28;20265;-87
2021/10/16 12:11:20;;;;;;;8.40;2.77;;;14.20;1.00;;;;;;5114255;28;20359;-85
2021/10/16 12:13:56;;;;;;;8.43;3.20;;;14.30;1.00;;;;;;5100758;28;20180;-89
2021/10/16 12:16:24;;;;;;;7.83;2.93;;;14.30;1.00;;;;;;5099342;28;20180;-88
2021/10/16 12:18:56;;;;;;;6.50;2.77;;;14.20;1.00;;;;;;5101118;28;20197;-82
2021/10/16 12:21:32;;;;;;;7.73;2.33;;;14.20;1.00;;;;;;5092049;28;20519;-86
2021/10/16 12:24:09;;;;;;;7.30;2.50;;;14.30;1.00;;;;;;5107326;28;20175;-84
2021/10/16 12:26:36;;;;;;;6.00;2.40;;;14.30;1.00;;;;;;5124053;27;20177;-83
2021/10/16 12:29:28;;;;;;;9.57;2.77;;;14.40;1.00;;;;;;5105342;28;20173;-82
2021/10/16 12:31:56;;;;;;;8.30;2.93;;;14.50;1.00;;;;;;5103438;28;20208;-84
2021/10/16 12:34:30;;;;;;;5.93;2.40;;;14.50;1.00;;;;;;5123901;28;20157;-83
2021/10/16 12:37:11;;;;;;;6.37;2.10;;;14.50;1.00;;;;;;5107152;28;20207;-86
2021/10/16 12:39:40;;;;;;;8.50;2.93;;;14.60;1.00;;;;;;5110840;28;20176;-87
2021/10/16 12:42:09;;;;;;;7.80;2.60;;;14.70;1.00;;;;;;5127499;28;20177;-80
2021/10/16 12:44:49;;;;;;;9.90;3.10;;;14.60;1.00;;;;;;5105122;28;20174;-89
2021/10/16 12:47:24;;;;;;;8.10;2.30;;;14.70;1.00;;;;;;5106809;28;20187;-87
2021/10/16 12:49:56;;;;;;;6.67;2.33;;;14.70;1.00;;;;;;5123186;27;20209;-88
2021/10/16 12:52:30;;;;;;;5.90;2.37;;;14.40;1.00;;;;;;5118452;28;20303;-92
2021/10/16 12:55:01;;;;;;;11.00;2.97;;;14.30;1.00;;;;;;5119071;28;20161;-91
2021/10/16 12:57:28;;;;;;;11.13;3.23;;;14.40;1.00;;;;;;5100727;28;20259;-88